Time;durP1;ratioP1;P1;durP2;ratioP2;P2;SDS_P1;SDS_P2;PMS_P1;PMS_P2;Temp;Humidity;BMP_temperature;BMP_pressure;BME280_temperature;BME280_humidity;BME280_pressure;Samples;Min_cycle;Max_cycle;Signal;HPM_P1;HPM_P2
2022/12/29 00:01:06;;;;;;;3.00;2.33;;;;;;;14.55;64.05;99980.59;5073347;28;20064;-67
2022/12/29 00:03:32;;;;;;;2.88;2.30;;;;;;;14.56;64.13;99982.28;5072707;28;20052;-67
2022/12/29 00:06:00;;;;;;;2.78;2.40;;;;;;;14.56;64.17;99973.31;5073200;28;20094;-66
2022/12/29 00:08:39;;;;;;;2.75;2.35;;;;;;;14.56;63.77;99959.81;5074367;28;20052;-67
2022/12/29 00:11:15;;;;;;;3.65;2.30;;;;;;;14.55;63.72;99958.97;5092565;28;20091;-67
2022/12/29 00:16:27;;;;;;;2.78;1.80;;;;;;;14.54;63.89;99951.88;5092046;28;20051;-67
2022/12/29 00:18:54;;;;;;;2.05;1.50;;;;;;;14.52;64.22;99958.44;5093203;28;20097;-67
2022/12/29 00:35:33;;;;;;;1.85;0.77;;;;;;;14.43;63.74;99945.84;5094348;28;20083;-66
2022/12/29 00:46:20;;;;;;;1.92;0.60;;;;;;;14.32;63.99;99930.72;5096935;28;20383;-67
2022/12/29 00:51:33;;;;;;;1.50;0.80;;;;;;;14.27;63.60;99923.06;5092081;28;20053;-68
2022/12/29 00:53:59;;;;;;;2.10;0.70;;;;;;;14.25;63.97;99921.53;5091858;28;20586;-67
2022/12/29 00:56:26;;;;;;;1.55;0.60;;;;;;;14.25;64.13;99921.53;5075129;28;20044;-67
2022/12/29 00:58:52;;;;;;;1.23;0.70;;;;;;;14.23;64.22;99912.75;5091944;28;20099;-68
2022/12/29 01:01:19;;;;;;;1.30;0.90;;;;;;;14.24;64.30;99915.28;5095488;28;20036;-66
2022/12/29 01:03:46;;;;;;;1.92;1.60;;;;;;;14.23;64.17;99912.75;5096246;28;20055;-66
2022/12/29 01:06:12;;;;;;;1.60;1.45;;;;;;;14.24;64.36;99909.03;5095410;28;20040;-66
2022/12/29 01:08:39;;;;;;;1.98;1.77;;;;;;;14.25;64.54;99908.03;5095276;28;20040;-66
2022/12/29 01:11:09;;;;;;;5.32;2.22;;;;;;;14.27;64.59;99901.47;5094958;28;20135;-66
2022/12/29 01:13:40;;;;;;;3.67;2.55;;;;;;;14.28;64.54;99889.66;5090046;28;20115;-65
2022/12/29 01:16:07;;;;;;;2.95;2.53;;;;;;;14.29;64.85;99912.13;5076727;28;20037;-66
2022/12/29 01:18:34;;;;;;;3.28;2.70;;;;;;;14.31;64.64;99904.69;5075938;28;20463;-66
2022/12/29 01:21:03;;;;;;;2.97;2.67;;;;;;;14.32;64.71;99899.16;5076332;28;20055;-65
2022/12/29 01:23:31;;;;;;;2.95;2.40;;;;;;;14.34;64.95;99895.44;5074286;28;20091;-67
2022/12/29 01:26:09;;;;;;;2.70;2.47;;;;;;;14.34;65.41;99882.78;5075919;28;20044;-66
2022/12/29 01:28:35;;;;;;;2.63;2.20;;;;;;;14.37;65.21;99885.16;5058188;28;20062;-66
2022/12/29 01:31:02;;;;;;;2.17;1.98;;;;;;;14.37;65.21;99892.44;5075624;28;20521;-67
2022/12/29 01:33:28;;;;;;;2.70;2.15;;;;;;;14.38;64.93;99894.13;5073879;28;20043;-66
2022/12/29 01:35:59;;;;;;;2.33;1.60;;;;;;;14.39;64.77;99888.56;5075071;28;20090;-65
2022/12/29 01:38:25;;;;;;;4.00;1.92;;;;;;;14.38;65.24;99894.97;5074747;28;20078;-66
2022/12/29 01:40:52;;;;;;;4.30;1.90;;;;;;;14.38;64.77;99880.63;5095902;28;20461;-66
2022/12/29 01:43:19;;;;;;;2.22;1.60;;;;;;;14.39;64.87;99879.63;5094010;28;20517;-66
2022/12/29 01:45:51;;;;;;;2.08;1.60;;;;;;;14.38;65.37;99869.81;5096430;28;20123;-66
2022/12/29 01:48:19;;;;;;;2.67;1.70;;;;;;;14.39;65.15;99866.94;5085082;28;20095;-66
2022/12/29 01:50:51;;;;;;;1.92;1.55;;;;;;;14.40;64.83;99881.31;5074136;28;20070;-65
2022/12/29 01:53:22;;;;;;;2.08;1.67;;;;;;;14.40;65.07;99865.09;5073873;28;20435;-66
2022/12/29 01:55:54;;;;;;;1.75;1.30;;;;;;;14.38;65.15;99862.56;5075321;28;20098;-66
2022/12/29 01:58:24;;;;;;;2.08;1.30;;;;;;;14.40;64.94;99870.50;5096413;28;20803;-67
2022/12/29 02:00:51;;;;;;;4.65;1.50;;;;;;;14.40;64.79;99865.09;5073929;28;20502;-66
2022/12/29 02:03:20;;;;;;;2.05;1.30;;;;;;;14.39;64.66;99860.69;5073582;28;20121;-66
2022/12/29 02:05:57;;;;;;;3.53;1.25;;;;;;;14.39;64.64;99869.66;5073972;28;20047;-67
2022/12/29 02:08:27;;;;;;;2.25;1.20;;;;;;;14.40;64.58;99879.47;5075088;28;20039;-67
2022/12/29 02:10:56;;;;;;;4.22;1.75;;;;;;;14.41;64.68;99875.75;5082498;28;20051;-67
2022/12/29 02:13:25;;;;;;;3.78;1.20;;;;;;;14.42;64.82;99869.38;5093699;28;20139;-66
2022/12/29 02:15:51;;;;;;;1.38;1.02;;;;;;;14.44;64.76;99870.06;5095319;28;20040;-66
2022/12/29 02:18:30;;;;;;;2.10;1.00;;;;;;;14.43;64.56;99867.53;5092217;28;20529;-67
2022/12/29 02:21:16;;;;;;;2.78;1.30;;;;;;;14.46;64.44;99876.16;5093954;28;20072;-66
2022/12/29 02:24:16;;;;;;;4.30;1.17;;;;;;;14.47;64.55;99875.16;5092647;28;20043;-66
2022/12/29 02:26:59;;;;;;;3.20;1.10;;;;;;;14.49;64.33;99862.34;5093809;28;20036;-66
2022/12/29 02:29:42;;;;;;;1.75;1.20;;;;;;;14.49;64.38;99865.03;5095016;28;20044;-67
2022/12/29 02:32:21;;;;;;;2.25;1.02;;;;;;;14.49;64.15;99866.88;5092528;28;20049;-67
2022/12/29 02:35:01;;;;;;;3.47;1.10;;;;;;;14.49;64.07;99867.72;5078594;28;20050;-67
2022/12/29 02:38:05;;;;;;;2.67;1.10;;;;;;;14.51;64.11;99872.97;5093435;28;20078;-66
2022/12/29 02:40:43;;;;;;;1.65;1.00;;;;;;;14.52;63.95;99867.41;5094750;28;20063;-66
2022/12/29 02:43:43;;;;;;;2.03;0.98;;;;;;;14.52;64.12;99856.63;5093142;28;20138;-66
2022/12/29 02:46:37;;;;;;;2.35;1.05;;;;;;;14.53;64.01;99858.31;5092642;28;20055;-67
2022/12/29 02:49:13;;;;;;;2.78;1.10;;;;;;;14.54;63.85;99864.56;5073331;28;20041;-65
2022/12/29 02:52:19;;;;;;;3.10;1.00;;;;;;;14.53;64.02;99863.72;5072846;28;20099;-67
2022/12/29 02:54:48;;;;;;;2.08;0.90;;;;;;;14.55;63.43;99860.84;5068011;28;20148;-67
2022/12/29 02:57:30;;;;;;;3.63;1.30;;;;;;;14.55;63.88;99845.47;5074042;28;20036;-66
2022/12/29 03:00:07;;;;;;;2.30;0.90;;;;;;;14.55;63.49;99852.75;5090488;28;20436;-66
2022/12/29 03:02:48;;;;;;;2.95;0.90;;;;;;;14.55;63.25;99850.88;5092707;28;20063;-66
2022/12/29 03:05:21;;;;;;;2.72;0.90;;;;;;;14.53;63.63;99857.47;5094637;28;20072;-65
2022/12/29 03:08:15;;;;;;;5.25;1.10;;;;;;;14.51;63.41;99841.41;5093410;28;20042;-65
2022/12/29 03:10:57;;;;;;;2.88;1.00;;;;;;;14.52;63.46;99835.00;5090890;28;20040;-66
2022/12/29 03:17:04;;;;;;;2.55;0.90;;;;;;;14.52;63.58;99845.81;5092737;28;20559;-65
2022/12/29 03:19:36;;;;;;;3.42;1.00;;;;;;;14.51;63.53;99836.00;5082397;28;20499;-67
2022/12/29 03:25:29;;;;;;;1.77;0.95;;;;;;;14.54;63.63;99851.06;5073302;28;20080;-66
2022/12/29 03:28:11;;;;;;;2.95;0.77;;;;;;;14.53;63.60;99844.81;5072789;28;20036;-66
2022/12/29 03:30:44;;;;;;;1.77;1.13;;;;;;;14.53;63.47;99843.94;5072248;28;20048;-66
2022/12/29 03:33:16;;;;;;;6.15;1.30;;;;;;;14.53;63.60;99838.53;5072061;28;20556;-65
2022/12/29 03:35:47;;;;;;;2.25;1.00;;;;;;;14.52;63.58;99834.16;5082643;28;20379;-66
2022/12/29 03:38:21;;;;;;;1.88;1.00;;;;;;;14.53;63.22;99847.50;5090602;28;20453;-66
2022/12/29 03:40:52;;;;;;;2.58;1.00;;;;;;;14.53;63.43;99842.09;5088971;28;20045;-67
2022/12/29 03:43:19;;;;;;;2.58;1.13;;;;;;;14.53;63.02;99831.28;5071784;28;20160;-66
2022/12/29 03:45:48;;;;;;;1.38;0.82;;;;;;;14.52;62.98;99823.34;5089038;28;20078;-67
2022/12/29 03:48:14;;;;;;;2.28;1.23;;;;;;;14.54;63.34;99824.03;5088086;28;20050;-67
2022/12/29 03:50:43;;;;;;;2.80;1.00;;;;;;;14.52;63.40;99824.19;5092306;28;20048;-67
2022/12/29 03:53:10;;;;;;;3.10;1.05;;;;;;;14.51;63.11;99833.31;5093173;28;20040;-66
2022/12/29 03:55:38;;;;;;;2.05;0.98;;;;;;;14.50;63.39;99826.19;5092104;28;20044;-66
2022/12/29 03:58:05;;;;;;;3.90;1.25;;;;;;;14.49;63.30;99847.97;5073016;28;20048;-67
2022/12/29 04:00:47;;;;;;;2.28;1.15;;;;;;;14.49;63.24;99834.47;5072323;28;20048;-66
2022/12/29 04:03:13;;;;;;;2.17;1.00;;;;;;;14.48;63.10;99830.91;5072817;28;20043;-66
2022/12/29 04:05:40;;;;;;;3.70;1.00;;;;;;;14.46;63.31;99823.97;5073341;28;20445;-66
2022/12/29 04:08:07;;;;;;;4.63;1.02;;;;;;;14.47;62.92;99828.38;5071772;28;20041;-66
2022/12/29 04:10:34;;;;;;;2.53;1.02;;;;;;;14.45;63.06;99833.94;5071881;28;20414;-66
2022/12/29 04:13:03;;;;;;;3.40;1.05;;;;;;;14.45;63.03;99828.53;5088540;28;20045;-66
2022/12/29 04:15:30;;;;;;;2.80;1.00;;;;;;;14.45;63.19;99844.75;5088940;28;20063;-66
2022/12/29 04:17:58;;;;;;;4.22;0.98;;;;;;;14.45;62.72;99849.31;5073639;28;20042;-66
2022/12/29 04:23:11;;;;;;;2.95;1.02;;;;;;;14.44;62.78;99853.84;5091770;28;20044;-67
2022/12/29 04:25:38;;;;;;;4.93;1.30;;;;;;;14.42;62.94;99861.28;5093349;28;20524;-66
2022/12/29 04:28:07;;;;;;;3.58;1.40;;;;;;;14.39;62.79;99839.94;5091441;28;20036;-67
2022/12/29 04:30:40;;;;;;;3.42;1.25;;;;;;;14.37;62.70;99841.09;5088158;28;20041;-67
2022/12/29 04:33:14;;;;;;;3.08;1.13;;;;;;;14.34;63.13;99842.28;5071764;28;20452;-67
2022/12/29 04:35:43;;;;;;;4.78;1.00;;;;;;;14.31;62.80;99850.69;5088485;28;20098;-67
2022/12/29 04:38:10;;;;;;;2.75;0.95;;;;;;;14.28;63.12;99846.44;5071718;28;20045;-67
2022/12/29 04:40:42;;;;;;;4.40;0.88;;;;;;;14.25;63.05;99848.63;5072363;28;20059;-67
2022/12/29 04:43:10;;;;;;;2.83;0.95;;;;;;;14.19;63.02;99862.75;5071156;28;20056;-67
2022/12/29 04:45:58;;;;;;;4.40;0.90;;;;;;;14.18;62.82;99863.75;5088511;28;20079;-66
2022/12/29 04:48:35;;;;;;;2.55;0.70;;;;;;;14.13;62.92;99866.06;5088585;28;20099;-68
2022/12/29 04:51:20;;;;;;;2.37;1.03;;;;;;;14.10;62.67;99852.84;5071577;28;20475;-68
2022/12/29 04:53:46;;;;;;;4.28;1.15;;;;;;;14.07;62.63;99855.84;5071611;28;20044;-67
2022/12/29 04:56:13;;;;;;;4.68;1.00;;;;;;;14.03;62.62;99865.28;5071517;28;20040;-67
2022/12/29 04:58:39;;;;;;;2.17;0.90;;;;;;;14.00;62.50;99867.28;5072622;28;20049;-67
2022/12/29 05:01:06;;;;;;;2.55;0.80;;;;;;;13.99;62.93;99857.47;5071548;28;20494;-66
2022/12/29 05:03:33;;;;;;;4.95;1.38;;;;;;;13.96;62.54;99855.09;5071012;28;20128;-67
2022/12/29 05:06:00;;;;;;;5.93;1.27;;;;;;;13.92;62.55;99867.19;5087978;28;20068;-66
2022/12/29 05:08:27;;;;;;;5.05;1.10;;;;;;;13.87;62.23;99874.91;5094012;28;20047;-66
2022/12/29 05:10:57;;;;;;;5.43;1.30;;;;;;;13.85;62.35;99876.06;5095360;28;20066;-66
2022/12/29 05:13:24;;;;;;;4.15;1.25;;;;;;;13.83;62.41;99886.16;5096128;28;20135;-67
2022/12/29 05:15:52;;;;;;;5.45;1.17;;;;;;;13.80;62.24;99879.22;5095096;28;20093;-67
2022/12/29 05:18:21;;;;;;;2.60;1.15;;;;;;;13.78;62.23;99889.31;5075378;28;20048;-67
2022/12/29 05:20:48;;;;;;;5.65;1.02;;;;;;;13.76;62.05;99894.03;5091608;28;20044;-67
2022/12/29 05:23:16;;;;;;;3.88;1.20;;;;;;;13.75;61.99;99896.88;5074443;28;20051;-67
2022/12/29 05:25:48;;;;;;;3.65;1.05;;;;;;;13.73;61.93;99901.59;5074828;28;20040;-67
2022/12/29 05:28:18;;;;;;;5.05;1.30;;;;;;;13.68;61.83;99894.78;5091397;28;20040;-67
2022/12/29 05:30:54;;;;;;;6.10;1.33;;;;;;;13.65;62.38;99910.44;5091426;28;20045;-66
2022/12/29 05:33:21;;;;;;;7.35;1.42;;;;;;;13.59;61.76;99906.50;5075561;28;20039;-67
2022/12/29 05:35:49;;;;;;;5.25;1.30;;;;;;;13.58;61.93;99920.13;5074418;28;20094;-66
2022/12/29 05:38:17;;;;;;;6.45;1.50;;;;;;;13.55;62.21;99910.50;5085243;28;20043;-66
2022/12/29 05:40:44;;;;;;;3.90;1.13;;;;;;;13.53;61.91;99935.91;5090691;28;20132;-65
2022/12/29 05:43:40;;;;;;;;;;;;;;;13.53;61.92;99934.06;5038604;28;20136;-67
2022/12/29 05:46:27;;;;;;;5.40;1.52;;;;;;;13.54;62.12;99943.00;5075937;28;20294;-67
2022/12/29 05:49:06;;;;;;;3.47;0.93;;;;;;;13.50;61.77;99941.63;5075061;28;20040;-67
2022/12/29 05:52:11;;;;;;;5.75;1.40;;;;;;;13.50;62.20;99934.38;5064457;28;20036;-66
2022/12/29 05:54:38;;;;;;;4.07;1.27;;;;;;;13.52;62.27;99939.63;5087173;28;20097;-65
2022/12/29 05:57:10;;;;;;;4.15;1.10;;;;;;;13.52;61.84;99937.78;5095040;28;20172;-66
2022/12/29 05:59:38;;;;;;;4.97;1.30;;;;;;;13.51;62.14;99936.06;5094238;28;20039;-66
2022/12/29 06:02:05;;;;;;;4.75;1.00;;;;;;;13.53;62.01;99949.41;5094088;28;20081;-66
2022/12/29 06:04:32;;;;;;;4.78;1.45;;;;;;;13.54;62.23;99935.78;5095136;28;20040;-66
2022/12/29 06:06:59;;;;;;;3.92;1.15;;;;;;;13.54;61.91;99951.09;5075570;28;20033;-65
2022/12/29 06:09:40;;;;;;;3.55;1.13;;;;;;;13.56;61.67;99957.19;5073772;28;20115;-65
2022/12/29 06:12:08;;;;;;;4.43;1.30;;;;;;;13.58;61.54;99955.19;5073345;28;20053;-66
2022/12/29 06:14:36;;;;;;;5.28;1.48;;;;;;;13.60;61.77;99943.25;5073781;28;20045;-65
2022/12/29 06:17:03;;;;;;;4.40;1.08;;;;;;;13.62;61.42;99946.66;5081706;28;20040;-65
2022/12/29 06:19:32;;;;;;;4.05;1.00;;;;;;;13.66;61.25;99944.50;5092726;28;20486;-65
2022/12/29 06:21:59;;;;;;;3.22;1.00;;;;;;;13.68;61.18;99945.22;5094852;28;20124;-66
2022/12/29 06:24:27;;;;;;;3.33;1.15;;;;;;;13.68;61.20;99948.75;5093759;28;20083;-66
2022/12/29 06:26:54;;;;;;;4.20;1.25;;;;;;;13.70;61.13;99962.09;5078876;28;20034;-66
2022/12/29 06:29:20;;;;;;;4.43;1.10;;;;;;;13.73;61.19;99950.16;5093636;28;20048;-66
2022/12/29 06:31:48;;;;;;;4.20;1.25;;;;;;;13.74;61.32;99958.09;5094703;28;20046;-66
2022/12/29 06:34:15;;;;;;;3.05;1.35;;;;;;;13.75;60.69;99946.31;5095164;28;20036;-66
2022/12/29 06:36:42;;;;;;;4.00;1.23;;;;;;;13.76;60.86;99944.44;5075148;28;20113;-66
2022/12/29 06:39:10;;;;;;;6.93;1.50;;;;;;;13.74;60.60;99933.81;5082339;28;20091;-66
2022/12/29 06:41:37;;;;;;;4.80;1.08;;;;;;;13.73;60.66;99940.22;5093184;28;20044;-65
2022/12/29 06:44:33;;;;;;;5.07;1.45;;;;;;;13.75;60.62;99938.19;5082525;28;20087;-66
2022/12/29 06:47:01;;;;;;;4.47;1.42;;;;;;;13.74;60.60;99936.50;5074124;28;20029;-66
2022/12/29 06:49:28;;;;;;;3.72;1.20;;;;;;;13.74;60.74;99924.88;5074109;28;20040;-66
2022/12/29 06:51:55;;;;;;;3.75;1.27;;;;;;;13.74;60.59;99932.97;5074190;28;20045;-66
2022/12/29 06:54:21;;;;;;;4.07;1.20;;;;;;;13.71;60.34;99930.56;5074320;28;20123;-65
2022/12/29 06:56:48;;;;;;;4.53;1.55;;;;;;;13.67;59.94;99932.72;5073671;28;20056;-66
2022/12/29 06:59:14;;;;;;;4.55;1.40;;;;;;;13.68;60.27;99937.09;5073864;28;20487;-66
2022/12/29 07:01:41;;;;;;;6.25;2.00;;;;;;;13.65;59.85;99932.88;5078680;28;20028;-65
2022/12/29 07:04:07;;;;;;;2.80;1.45;;;;;;;13.64;59.80;99930.31;5094094;28;20509;-65
2022/12/29 07:06:34;;;;;;;3.38;1.23;;;;;;;13.63;59.50;99932.16;5093986;28;20035;-66
2022/12/29 07:09:01;;;;;;;7.05;1.45;;;;;;;13.61;59.89;99934.16;5094474;28;20064;-66
2022/12/29 07:11:27;;;;;;;4.50;1.70;;;;;;;13.60;59.20;99948.66;5094342;28;20065;-65
2022/12/29 07:13:54;;;;;;;7.57;1.50;;;;;;;13.59;59.13;99956.91;5077340;28;20045;-66
2022/12/29 07:16:20;;;;;;;3.78;1.35;;;;;;;13.58;59.36;99949.81;5094061;28;20127;-65
2022/12/29 07:18:47;;;;;;;5.95;1.60;;;;;;;13.57;59.08;99957.06;5093862;28;20553;-65
2022/12/29 07:21:14;;;;;;;7.32;1.65;;;;;;;13.58;59.49;99968.69;5087647;28;20111;-65
2022/12/29 07:23:40;;;;;;;5.10;1.33;;;;;;;13.59;59.55;99979.34;5086751;28;20048;-66
2022/12/29 07:26:10;;;;;;;5.22;1.52;;;;;;;13.60;59.18;99978.34;5093947;28;20078;-66
2022/12/29 07:28:37;;;;;;;8.48;1.98;;;;;;;13.63;59.34;99983.44;5093714;28;20052;-67
2022/12/29 07:31:06;;;;;;;10.07;1.80;;;;;;;13.66;59.32;99987.69;5093407;28;20048;-66
2022/12/29 07:33:33;;;;;;;6.75;1.77;;;;;;;13.68;59.16;99996.47;5093919;28;20036;-66
2022/12/29 07:36:00;;;;;;;5.32;1.50;;;;;;;13.72;59.17;99991.63;5092695;28;20073;-65
2022/12/29 07:38:26;;;;;;;8.32;2.03;;;;;;;13.72;59.25;99989.78;5093728;28;20044;-66
2022/12/29 07:40:56;;;;;;;5.78;1.73;;;;;;;13.73;58.82;99998.72;5085199;28;20045;-66
2022/12/29 07:43:23;;;;;;;9.13;1.75;;;;;;;13.75;59.13;100004.81;5073559;28;20135;-66
2022/12/29 07:46:15;;;;;;;5.72;1.65;;;;;;;13.76;58.98;100001.97;5062113;28;20052;-66
2022/12/29 07:49:02;;;;;;;7.13;1.85;;;;;;;13.77;58.88;100014.47;5093583;28;20048;-67
2022/12/29 07:51:29;;;;;;;7.88;2.38;;;;;;;13.76;58.88;100018.16;5093678;28;20549;-67
2022/12/29 07:53:55;;;;;;;7.30;2.25;;;;;;;13.77;58.19;100016.31;5093419;28;20119;-66
2022/12/29 07:56:22;;;;;;;8.27;1.67;;;;;;;13.74;58.35;100019.31;5092993;28;20093;-66
2022/12/29 07:58:49;;;;;;;8.82;2.05;;;;;;;13.72;58.13;100015.91;5088723;28;20040;-66
2022/12/29 08:01:15;;;;;;;5.70;1.70;;;;;;;13.70;58.28;100007.97;5092016;28;20110;-66
2022/12/29 08:03:43;;;;;;;8.27;1.70;;;;;;;13.69;58.06;100003.56;5093145;28;20054;-64
2022/12/29 08:06:11;;;;;;;7.68;1.50;;;;;;;13.67;58.21;100009.13;5090805;28;20406;-66
2022/12/29 08:08:38;;;;;;;6.30;1.90;;;;;;;13.67;57.84;100008.25;5093217;28;20074;-65
2022/12/29 08:11:06;;;;;;;6.18;1.95;;;;;;;13.67;57.87;100027.16;5084582;28;20072;-66
2022/12/29 08:13:33;;;;;;;8.25;1.75;;;;;;;13.67;58.20;100022.59;5072998;28;20044;-65
2022/12/29 08:16:00;;;;;;;10.93;2.05;;;;;;;13.69;58.16;100022.47;5072144;28;20143;-65
2022/12/29 08:18:27;;;;;;;5.82;1.98;;;;;;;13.71;58.05;100025.00;5073216;28;20040;-65
2022/12/29 08:20:53;;;;;;;5.47;1.70;;;;;;;13.73;58.01;100031.94;5074127;28;20040;-65
2022/12/29 08:23:21;;;;;;;8.20;2.13;;;;;;;13.76;57.86;100028.09;5092965;28;20114;-66
2022/12/29 08:26:00;;;;;;;6.88;2.20;;;;;;;13.77;57.83;100038.75;5069967;28;20387;-65
2022/12/29 08:28:27;;;;;;;10.05;2.00;;;;;;;13.82;57.94;100041.84;5073420;28;20037;-65
2022/12/29 08:31:09;;;;;;;8.20;2.00;;;;;;;13.82;57.91;100030.22;5085667;28;20040;-65
2022/12/29 08:33:36;;;;;;;6.80;1.90;;;;;;;13.83;58.11;100040.84;5093110;28;20044;-64
2022/12/29 08:36:06;;;;;;;6.90;2.10;;;;;;;13.83;57.92;100032.75;5091852;28;20117;-65
2022/12/29 08:38:32;;;;;;;8.18;2.35;;;;;;;13.84;57.52;100039.84;5093521;28;20040;-65
2022/12/29 08:41:02;;;;;;;5.05;1.88;;;;;;;13.87;57.62;100044.94;5092915;28;20048;-65
2022/12/29 08:43:30;;;;;;;7.75;2.20;;;;;;;13.87;57.54;100038.69;5094438;28;20452;-66
2022/12/29 08:45:58;;;;;;;7.22;2.33;;;;;;;13.89;57.34;100044.81;5110526;28;20476;-66
2022/12/29 08:48:25;;;;;;;6.32;2.20;;;;;;;13.90;57.44;100038.41;5095533;28;20043;-65
2022/12/29 08:50:52;;;;;;;9.40;2.15;;;;;;;13.90;57.30;100033.84;5092124;28;20054;-65
2022/12/29 08:53:19;;;;;;;6.50;1.83;;;;;;;13.93;57.04;100043.50;5095294;28;20401;-65
2022/12/29 08:55:46;;;;;;;8.98;2.20;;;;;;;13.94;57.21;100046.06;5096325;28;20101;-65
2022/12/29 08:58:16;;;;;;;9.38;2.13;;;;;;;14.01;57.44;100046.28;5104564;28;20044;-65
2022/12/29 09:00:43;;;;;;;7.18;2.15;;;;;;;14.07;57.08;100039.44;5115595;28;20078;-66
2022/12/29 09:03:10;;;;;;;8.30;1.70;;;;;;;14.11;57.05;100046.25;5115109;28;20082;-65
2022/12/29 09:05:37;;;;;;;7.47;1.70;;;;;;;14.14;56.97;100043.28;5116451;28;20082;-66
2022/12/29 09:08:04;;;;;;;8.55;1.88;;;;;;;14.14;57.01;100040.56;5116782;28;20043;-65
2022/12/29 09:10:32;;;;;;;7.72;1.98;;;;;;;14.15;56.64;100040.41;5116909;28;20064;-66
2022/12/29 09:12:58;;;;;;;9.00;2.50;;;;;;;14.15;56.71;100042.28;5111375;28;20036;-66
2022/12/29 09:15:25;;;;;;;6.25;1.92;;;;;;;14.16;56.79;100055.63;5095824;28;20490;-65
2022/12/29 09:17:52;;;;;;;8.05;1.90;;;;;;;14.16;56.72;100047.53;5095628;27;20105;-64
2022/12/29 09:20:19;;;;;;;10.35;2.40;;;;;;;14.17;56.40;100040.28;5095586;28;20118;-63
2022/12/29 09:22:46;;;;;;;6.55;2.33;;;;;;;14.18;56.63;100045.53;5095751;28;20040;-65
2022/12/29 09:25:14;;;;;;;9.27;2.28;;;;;;;14.16;56.30;100047.53;5095733;28;20044;-64
2022/12/29 09:27:41;;;;;;;8.88;1.83;;;;;;;14.17;56.52;100048.38;5095875;28;20140;-64
2022/12/29 09:30:11;;;;;;;8.40;1.98;;;;;;;14.18;56.39;100050.06;5094474;28;20032;-64
2022/12/29 09:32:38;;;;;;;5.57;1.83;;;;;;;14.20;56.01;100056.16;5093840;28;20048;-64
2022/12/29 09:35:11;;;;;;;9.98;2.38;;;;;;;14.20;56.28;100057.03;5093676;28;20447;-65
2022/12/29 09:37:38;;;;;;;7.07;1.70;;;;;;;14.22;56.45;100059.56;5093556;28;20479;-64
2022/12/29 09:40:06;;;;;;;7.75;1.95;;;;;;;14.21;55.89;100060.56;5093854;28;20097;-64
2022/12/29 09:42:40;;;;;;;6.60;2.03;;;;;;;14.24;56.04;100062.97;5093085;28;20059;-64
2022/12/29 09:45:18;;;;;;;7.40;2.03;;;;;;;14.24;56.38;100079.16;5092547;28;20048;-64
2022/12/29 09:47:46;;;;;;;6.80;1.65;;;;;;;14.25;56.19;100083.56;5074783;28;20162;-64
2022/12/29 09:50:19;;;;;;;6.68;1.85;;;;;;;14.23;55.89;100083.72;5075175;28;20040;-65
2022/12/29 09:52:55;;;;;;;9.07;1.90;;;;;;;14.22;56.32;100089.28;5085291;28;20044;-65
2022/12/29 09:55:25;;;;;;;10.65;2.78;;;;;;;14.21;56.25;100087.56;5095006;28;20098;-64
2022/12/29 09:58:21;;;;;;;8.50;2.08;;;;;;;14.17;56.05;100081.63;5094710;28;20450;-65
2022/12/29 10:00:49;;;;;;;4.00;1.70;;;;;;;14.22;56.23;100098.22;5089332;28;20109;-65
2022/12/29 10:03:23;;;;;;;5.68;1.88;;;;;;;14.21;56.44;100099.22;5092706;28;20509;-64
2022/12/29 10:06:03;;;;;;;8.18;1.85;;;;;;;14.21;56.25;100109.19;5078296;28;20490;-64
2022/12/29 10:08:54;;;;;;;6.82;1.65;;;;;;;14.20;56.40;100116.44;5075371;28;20059;-65
2022/12/29 10:11:45;;;;;;;6.80;2.03;;;;;;;14.20;56.39;100116.44;5074931;28;20048;-65
2022/12/29 10:14:22;;;;;;;5.78;1.63;;;;;;;14.18;56.52;100118.44;5075055;28;20067;-65
2022/12/29 10:17:14;;;;;;;8.77;1.60;;;;;;;14.15;56.48;100124.13;5074605;28;20491;-65
2022/12/29 10:20:10;;;;;;;11.55;2.05;;;;;;;14.14;56.45;100130.53;5074757;28;20049;-66
2022/12/29 10:22:42;;;;;;;7.95;2.00;;;;;;;14.14;56.41;100122.44;5087120;28;20047;-65
2022/12/29 10:25:18;;;;;;;5.78;1.92;;;;;;;14.08;56.88;100139.19;5094734;28;20047;-65
2022/12/29 10:27:47;;;;;;;;;;;;;;;14.08;56.89;100139.19;5095378;28;20547;-66
2022/12/29 10:30:15;;;;;;;6.38;1.58;;;;;;;14.08;56.96;100143.75;5093923;28;19920;-65
2022/12/29 10:33:06;;;;;;;6.57;1.88;;;;;;;14.03;57.25;100151.44;5094678;28;20036;-65
2022/12/29 10:35:40;;;;;;;6.15;1.50;;;;;;;13.99;57.24;100165.22;5094612;28;20492;-64
2022/12/29 10:38:28;;;;;;;5.50;1.70;;;;;;;13.95;57.27;100166.53;5093448;28;20074;-65
2022/12/29 10:41:13;;;;;;;6.43;1.50;;;;;;;13.94;57.62;100169.38;5094521;28;20040;-65
2022/12/29 10:43:52;;;;;;;5.60;1.60;;;;;;;13.92;57.73;100168.66;5092976;28;20567;-65
2022/12/29 10:46:35;;;;;;;6.90;1.95;;;;;;;13.91;57.73;100180.47;5093046;28;20055;-65
2022/12/29 10:49:03;;;;;;;6.18;1.77;;;;;;;13.91;57.65;100192.13;5105929;28;20059;-65
2022/12/29 10:51:35;;;;;;;5.38;1.90;;;;;;;13.90;57.95;100185.00;5094212;28;20057;-65
2022/12/29 10:54:12;;;;;;;6.53;2.08;;;;;;;13.90;57.83;100203.91;5102607;28;20531;-66
2022/12/29 10:56:44;;;;;;;8.15;2.22;;;;;;;13.92;58.06;100201.91;5095690;28;20428;-65
2022/12/29 10:59:27;;;;;;;6.38;2.00;;;;;;;13.91;58.29;100197.50;5094417;28;20547;-65
2022/12/29 11:02:09;;;;;;;8.93;2.20;;;;;;;13.91;58.40;100207.47;5083913;28;20541;-64
2022/12/29 11:04:55;;;;;;;10.48;1.77;;;;;;;13.89;58.20;100209.44;5072126;28;20048;-65
2022/12/29 11:07:22;;;;;;;9.88;1.77;;;;;;;13.85;58.22;100206.19;5073805;28;20039;-65
2022/12/29 11:09:53;;;;;;;5.95;1.80;;;;;;;13.84;58.31;100217.13;5073693;28;20105;-65
2022/12/29 11:12:29;;;;;;;7.25;2.20;;;;;;;13.83;58.42;100218.97;5073360;28;20136;-65
2022/12/29 11:15:08;;;;;;;8.05;1.90;;;;;;;13.81;58.90;100223.69;5073721;28;20049;-65
2022/12/29 11:17:44;;;;;;;7.72;1.83;;;;;;;13.82;58.86;100219.97;5073319;28;20072;-65
2022/12/29 11:20:25;;;;;;;9.88;2.20;;;;;;;13.82;59.07;100232.63;5073616;28;20048;-65
2022/12/29 11:22:52;;;;;;;5.95;1.98;;;;;;;13.85;58.77;100237.72;5072902;28;20045;-65
2022/12/29 11:25:19;;;;;;;8.48;2.72;;;;;;;13.86;59.13;100236.72;5074852;28;20051;-65
2022/12/29 11:28:21;;;;;;;5.18;1.98;;;;;;;13.85;58.77;100243.13;5073258;28;20405;-65
2022/12/29 11:30:59;;;;;;;6.30;1.98;;;;;;;13.86;58.96;100244.84;4991958;28;20497;-65
2022/12/29 11:33:28;;;;;;;7.20;2.20;;;;;;;13.85;59.08;100245.84;5063890;28;20060;-65
2022/12/29 11:36:06;;;;;;;8.27;2.30;;;;;;;13.84;59.37;100255.78;5073088;28;20036;-64
2022/12/29 11:38:38;;;;;;;7.13;2.72;;;;;;;13.83;58.87;100248.66;5073503;28;20049;-65
2022/12/29 11:41:06;;;;;;;10.35;2.20;;;;;;;13.85;59.51;100260.19;5073452;28;20048;-64
2022/12/29 11:43:38;;;;;;;10.13;3.10;;;;;;;13.86;59.36;100253.78;5072959;28;20045;-64
2022/12/29 11:46:05;;;;;;;6.82;2.45;;;;;;;13.88;59.30;100253.63;5073135;28;20052;-65
2022/12/29 11:48:39;;;;;;;5.57;1.95;;;;;;;13.90;59.15;100265.13;5073413;28;20044;-65
2022/12/29 11:51:07;;;;;;;6.47;2.03;;;;;;;13.91;59.11;100258.75;5073207;28;20139;-65
2022/12/29 11:53:46;;;;;;;8.30;2.17;;;;;;;13.88;59.32;100267.97;5073069;28;20044;-64
2022/12/29 11:56:16;;;;;;;10.88;2.75;;;;;;;13.87;59.24;100257.34;5072954;28;20486;-64
2022/12/29 11:58:43;;;;;;;6.68;2.25;;;;;;;13.87;59.12;100268.97;5080818;28;20071;-65
2022/12/29 12:01:13;;;;;;;6.13;2.13;;;;;;;13.87;59.47;100270.84;5093396;28;20040;-66
2022/12/29 12:03:47;;;;;;;9.43;2.75;;;;;;;13.87;58.93;100268.97;5092989;28;20036;-64
2022/12/29 12:06:20;;;;;;;7.18;2.50;;;;;;;13.89;58.95;100263.44;5091258;28;20040;-65
2022/12/29 12:08:54;;;;;;;9.65;2.63;;;;;;;13.90;59.02;100270.53;5093280;28;20456;-66
2022/12/29 12:11:35;;;;;;;11.55;2.50;;;;;;;13.91;58.93;100261.44;5093156;28;20127;-65
2022/12/29 12:14:12;;;;;;;10.93;2.55;;;;;;;13.93;59.00;100272.94;5092035;28;20066;-65
2022/12/29 12:17:04;;;;;;;12.13;2.30;;;;;;;13.95;59.03;100279.06;5095310;28;20497;-66
2022/12/29 12:19:58;;;;;;;10.07;2.60;;;;;;;13.94;58.98;100272.81;5097538;28;20052;-65
2022/12/29 12:22:24;;;;;;;7.68;2.38;;;;;;;13.99;59.19;100277.78;5089681;28;20127;-65
2022/12/29 12:24:59;;;;;;;11.32;2.70;;;;;;;14.01;59.05;100286.56;5096899;28;20048;-66
2022/12/29 12:27:39;;;;;;;10.20;2.55;;;;;;;14.05;58.78;100284.44;5097357;28;20048;-65
2022/12/29 12:30:22;;;;;;;11.02;2.70;;;;;;;14.09;59.17;100285.84;5095670;28;20082;-65